Latest Weather Observations for Sheffield

IDT60801

Issued at 12:51 pm EST Thursday 1 October 2020 (issued every 10 minutes, with the page automatically refreshed every 10 minutes)

About weather observations | Map of weather stations | Latest weather observations for TAS | Other Formats
Station Details ID: 091291 Name: SHEFFIELD SCHOOL FARM Lat: -41.39 Lon: 146.32 Height: 294.2 m
Data from the previous 72 hours. | See also: Recent months at Sheffield
Date/Time
EST
Temp
°C
App
Temp
°C
Dew
Point
°C
Rel
Hum
%
Delta-T
°C
Wind Press
QNH
hPa
Press
MSL
hPa
Rain since
9am
mm
Dir  Spd
km/h
Gust
km/h
Spd
kts
Gust
kts
01/12:30pm 11.2 5.6 1.5 51 4.2 W 20 32 11 17 1010.0 1010.1 0.0
01/12:00pm 12.1 6.9 2.3 51 4.3 W 19 28 10 15 1009.8 1009.9 0.0
01/11:30am 11.6 6.2 2.4 53 4.0 WSW 20 30 11 16 1009.8 1009.9 0.0
01/11:00am 11.3 5.5 2.3 54 3.9 WSW 22 35 12 19 1009.8 1009.9 0.0
01/10:30am 11.1 4.1 2.2 54 3.9 W 28 41 15 22 1009.6 1009.7 0.0
01/10:00am 10.9 6.3 3.5 60 3.3 WSW 17 30 9 16 1009.6 1009.7 0.0
01/09:30am 9.7 4.1 3.4 65 2.8 WSW 22 35 12 19 1009.4 1009.7 0.0
01/09:00am 8.6 2.9 3.0 68 2.4 WSW 22 33 12 18 1009.1 1009.4 10.2
01/08:30am 9.1 2.6 2.9 65 2.7 W 26 39 14 21 1008.2 1008.6 10.2
01/08:00am 8.8 3.5 3.2 68 2.4 WSW 20 33 11 18 1008.0 1008.4 10.2
01/07:30am 7.9 3.6 3.2 72 2.0 WNW 15 26 8 14 1007.7 1008.1 10.2
01/07:00am 7.3 2.5 2.6 72 2.0 W 17 28 9 15 1007.2 1007.5 10.2
01/06:30am 6.6 1.2 2.5 75 1.7 W 20 28 11 15 1006.6 1006.9 10.2
01/06:00am 4.8 1.8 2.0 82 1.1 NW 7 13 4 7 1006.2 1006.5 10.2
01/05:30am 4.5 0.4 2.4 86 0.9 NNW 13 20 7 11 1005.7 1006.0 10.2
01/05:00am 4.9 2.0 2.4 84 1.0 NW 7 9 4 5 1005.4 1005.7 10.2
01/04:30am 4.9 2.0 2.8 86 0.9 NNW 7 9 4 5 1005.0 1005.3 10.2
01/04:00am 5.1 2.3 3.1 87 0.8 NW 7 9 4 5 1004.4 1004.7 10.2
01/03:30am 6.1 2.2 3.3 82 1.2 WNW 13 20 7 11 1004.2 1004.5 10.2
01/03:00am 5.2 1.3 3.5 89 0.7 WNW 13 17 7 9 1004.2 1004.5 10.2
01/02:30am 6.4 3.4 3.9 84 1.1 W 9 15 5 8 1003.7 1004.0 10.2
01/02:00am 7.1 3.0 4.6 84 1.1 W 15 24 8 13 1003.7 1004.0 10.2
01/01:30am 6.6 3.0 4.9 89 0.8 WNW 13 17 7 9 1003.6 1003.9 10.2
01/01:00am 7.2 2.9 5.2 87 0.9 NW 17 22 9 12 1003.3 1003.6 10.2
01/12:30am 7.8 4.4 5.8 87 0.9 NW 13 17 7 9 1003.2 1003.5 10.2
01/12:00am 8.0 5.0 6.0 87 0.9 NW 11 17 6 9 1003.2 1003.5 10.2
 
Date/Time
EST
Temp
°C
App
Temp
°C
Dew
Point
°C
Rel
Hum
%
Delta-T
°C
Wind Press
QNH
hPa
Press
MSL
hPa
Rain since
9am
mm
Dir  Spd
km/h
Gust
km/h
Spd
kts
Gust
kts
30/11:30pm 8.5 4.8 6.5 87 0.9 NW 15 22 8 12 1003.1 1003.4 10.2
30/11:00pm 8.5 5.0 7.0 90 0.7 WNW 15 20 8 11 1003.0 1003.3 10.2
30/10:30pm 8.8 5.5 7.9 94 0.4 NW 15 20 8 11 1003.1 1003.4 10.2
30/10:00pm 8.8 6.7 8.4 97 0.2 NNW 9 13 5 7 1002.9 1003.2 10.2
30/09:30pm 8.9 6.7 8.0 94 0.4 NW 9 13 5 7 1003.0 1003.3 10.2
30/09:00pm 9.1 5.8 8.2 94 0.4 NW 15 20 8 11 1003.4 1003.7 10.0
30/08:30pm 9.5 4.6 8.6 94 0.4 WNW 24 32 13 17 1003.4 1003.7 9.0
30/08:00pm 10.4 6.0 10.4 100 0.0 NW 24 39 13 21 1002.8 1003.1 7.0
30/07:30pm 10.7 6.0 10.7 100 0.0 NNW 26 37 14 20 1002.8 1003.1 4.0
30/07:00pm 10.6 7.0 10.6 100 0.0 NNW 20 30 11 16 1002.7 1003.0 2.2
30/06:30pm 10.3 7.2 10.3 100 0.0 NNW 17 24 9 13 1003.0 1003.3 2.0
30/06:00pm 10.2 7.0 10.1 99 0.1 N 17 26 9 14 1003.3 1003.6 1.0
30/05:30pm 10.2 7.4 10.1 99 0.1 N 15 22 8 12 1003.6 1003.9 0.4
30/05:00pm 10.2 7.4 10.1 99 0.1 N 15 22 8 12 1003.8 1004.1 0.4
30/04:30pm 10.4 6.9 10.1 98 0.2 N 19 28 10 15 1004.2 1004.5 0.0
30/04:00pm 10.5 6.7 9.7 95 0.4 N 20 32 11 17 1004.5 1004.8 0.0
30/03:30pm 10.8 6.4 9.1 89 0.9 N 22 33 12 18 1005.2 1005.5 0.0
30/03:00pm 10.7 6.9 9.1 90 0.8 N 19 30 10 16 1005.6 1005.9 0.0
30/02:30pm 10.8 7.5 9.4 91 0.7 N 17 24 9 13 1006.1 1006.4 0.0
30/02:00pm 10.7 7.8 9.8 94 0.5 N 15 22 8 12 1006.5 1006.8 0.0
30/01:30pm 10.4 8.3 9.8 96 0.3 NNW 11 19 6 10 1007.1 1007.4 0.0
30/01:00pm 10.4 7.4 9.2 92 0.6 N 15 24 8 13 1007.7 1008.1 0.0
30/12:30pm 10.8 7.4 9.2 90 0.8 N 17 20 9 11 1008.4 1008.7 0.0
30/12:00pm 11.3 8.6 8.9 85 1.2 NNW 13 19 7 10 1008.6 1008.9 0.0
30/11:30am 11.3 9.2 9.7 90 0.8 NNW 11 15 6 8 1008.9 1009.2 0.0
30/11:00am 11.2 8.0 9.8 91 0.7 N 17 28 9 15 1009.5 1009.8 0.0
30/10:30am 10.9 8.3 9.2 89 0.9 N 13 19 7 10 1009.9 1010.2 0.0
30/10:00am 11.5 9.4 9.9 90 0.8 NNE 11 17 6 9 1010.5 1010.9 0.0
30/09:30am 10.9 10.8 10.7 99 0.1 S 2 4 1 2 1011.0 1011.4 0.0
30/09:00am 10.2 9.1 10.1 99 0.1 SSE 6 7 3 4 1011.4 1011.8 1.0
30/08:30am 9.8 9.0 9.5 98 0.2 SSE 4 6 2 3 1011.7 1012.1 0.8
30/08:00am 9.3 8.7 8.8 97 0.2 ESE 2 4 1 2 1012.2 1012.5 0.6
30/07:30am 9.0 7.9 8.6 97 0.2 ESE 4 6 2 3 1012.2 1012.5 0.4
30/07:00am 8.7 7.6 8.4 98 0.1 SE 4 4 2 2 1012.3 1012.6 0.2
30/06:30am 8.4 7.3 8.3 99 0.0 ESE 4 4 2 2 1012.5 1012.8 0.2
30/06:00am 8.2 7.4 8.1 99 0.0 SE 2 4 1 2 1012.6 1012.9 0.2
30/05:30am 8.1 7.6 8.0 99 0.0 CALM 0 2 0 1 1012.6 1012.9 0.2
30/05:00am 8.1 6.5 8.0 99 0.0 ESE 6 6 3 3 1012.8 1013.1 0.2
30/04:30am 8.1 6.3 8.0 99 0.0 ESE 7 9 4 5 1013.1 1013.4 0.2
30/04:00am 8.1 6.3 8.0 99 0.0 SE 7 9 4 5 1013.4 1013.8 0.2
30/03:30am 8.0 6.2 7.9 99 0.0 ESE 7 7 4 4 1013.8 1014.2 0.2
30/03:00am 7.7 6.0 7.4 98 0.1 ESE 6 7 3 4 1014.4 1014.8 0.2
30/02:30am 7.8 5.4 7.1 95 0.3 SE 9 11 5 6 1014.7 1015.1 0.2
30/02:00am 8.0 5.9 6.8 92 0.6 SSE 7 11 4 6 1015.4 1015.8 0.0
30/01:30am 8.0 5.9 6.5 90 0.7 SE 7 7 4 4 1016.1 1016.4 0.0
30/01:00am 8.0 5.9 6.5 90 0.7 SE 7 9 4 5 1016.7 1017.1 0.0
30/12:30am 7.9 5.4 6.4 90 0.7 SE 9 11 5 6 1016.9 1017.3 0.0
30/12:00am 7.8 5.8 6.3 90 0.7 SE 6 7 3 4 1017.4 1017.8 0.0
 
Date/Time
EST
Temp
°C
App
Temp
°C
Dew
Point
°C
Rel
Hum
%
Delta-T
°C
Wind Press
QNH
hPa
Press
MSL
hPa
Rain since
9am
mm
Dir  Spd
km/h
Gust
km/h
Spd
kts
Gust
kts
29/11:30pm 7.9 6.2 5.7 86 1.0 SE 4 7 2 4 1017.7 1018.1 0.0
29/11:00pm 7.9 5.8 5.9 87 0.9 E 6 7 3 4 1018.0 1018.4 0.0
29/10:30pm 7.9 5.8 6.0 88 0.9 E 6 7 3 4 1018.4 1018.8 0.0
29/10:00pm 7.8 5.5 5.9 88 0.9 ESE 7 11 4 6 1018.7 1019.1 0.0
29/09:30pm 7.7 5.4 5.7 87 0.9 SE 7 9 4 5 1019.0 1019.4 0.0
29/09:00pm 7.7 5.6 6.0 89 0.8 SE 6 6 3 3 1019.4 1019.8 0.0
29/08:30pm 7.6 5.5 5.7 88 0.9 SSE 6 7 3 4 1019.6 1020.0 0.0
29/08:00pm 7.5 5.3 5.5 87 0.9 SE 6 7 3 4 1019.7 1020.1 0.0
29/07:30pm 8.1 6.3 5.2 82 1.3 ENE 4 6 2 3 1019.9 1020.3 0.0
29/07:00pm 8.0 6.6 5.3 83 1.2 NNE 2 4 1 2 1019.9 1020.3 0.0
29/06:30pm 8.1 6.2 5.0 81 1.4 N 4 6 2 3 1019.9 1020.3 0.0
29/06:00pm 8.8 6.4 5.4 79 1.6 N 7 9 4 5 1019.9 1020.3 0.0
29/05:30pm 8.8 6.6 5.4 79 1.6 NE 6 7 3 4 1019.5 1019.9 0.0
29/05:00pm 9.3 6.5 5.1 75 1.9 NNE 9 13 5 7 1019.8 1020.2 0.0
29/04:30pm 9.9 6.5 5.7 75 2.0 N 13 17 7 9 1019.7 1020.1 0.0
29/04:00pm 10.1 7.0 5.7 74 2.0 N 11 17 6 9 1020.0 1020.4 0.0
29/03:30pm 10.6 7.9 5.8 72 2.3 NNE 9 17 5 9 1020.3 1020.7 0.0
29/03:00pm 11.0 7.7 6.6 74 2.1 NNE 13 19 7 10 1020.4 1020.8 0.0
29/02:30pm 11.4 8.4 6.1 70 2.5 N 11 17 6 9 1021.0 1021.4 0.0
29/02:00pm 12.1 9.1 6.2 67 2.8 NNE 11 19 6 10 1021.2 1021.6 0.0
29/01:30pm 11.9 8.3 4.9 62 3.3 NNE 13 17 7 9 1021.7 1022.1 0.0
29/01:00pm 12.0 9.8 6.1 67 2.8 ENE 7 17 4 9 1022.2 1022.7 0.0
29/12:30pm 12.2 10.3 6.7 69 2.7 ENE 6 13 3 7 1022.8 1023.2 0.0
29/12:00pm 10.9 8.8 5.9 71 2.3 ENE 6 9 3 5 1023.4 1023.8 0.0
29/11:30am 10.0 8.7 6.2 77 1.8 SSE 2 6 1 3 1024.0 1024.4 0.0
29/11:00am 10.2 8.3 4.8 69 2.5 N 4 11 2 6 1024.3 1024.7 0.0
29/10:30am 10.1 9.1 7.2 82 1.4 SE 2 6 1 3 1024.6 1025.0 0.0
29/10:00am 9.1 6.5 6.2 82 1.3 E 9 13 5 7 1025.1 1025.6 0.0
29/09:30am 9.2 7.2 6.1 81 1.4 ENE 6 9 3 5 1025.5 1026.0 0.0
29/09:00am 9.5 6.5 6.0 79 1.6 SE 11 15 6 8 1025.2 1025.7 0.0
29/08:30am 7.7 5.4 5.8 88 0.9 ESE 7 9 4 5 1025.5 1026.0 0.0
29/08:00am 6.8 5.0 5.4 91 0.6 ESE 4 7 2 4 1025.5 1026.0 0.0
29/07:30am 5.8 4.4 5.5 98 0.1 E 2 4 1 2 1025.6 1026.1 0.0
29/07:00am 5.3 2.9 5.2 99 0.0 S 7 9 4 5 1025.4 1025.9 0.0
29/06:30am 4.1 2.4 4.0 99 0.0 WSW 2 6 1 3 1025.2 1025.7 0.0
29/06:00am 3.6 1.8 3.5 99 0.0 SSE 2 4 1 2 1024.8 1025.3 0.0
29/05:30am 3.1 0.5 3.0 99 0.0 SE 6 6 3 3 1024.5 1024.9 0.0
29/05:00am 3.7 1.9 3.6 99 0.0 SW 2 4 1 2 1024.7 1025.1 0.0
29/04:30am 4.2 2.1 3.8 97 0.2 WSW 4 4 2 2 1024.7 1025.1 0.0
29/04:00am 4.4 3.0 3.5 94 0.4 CALM 0 0 0 0 1024.8 1025.3 0.0
29/03:30am 4.4 3.0 3.5 94 0.4 CALM 0 4 0 2 1025.0 1025.5 0.0
29/03:00am 4.7 2.2 3.8 94 0.4 SE 6 7 3 4 1024.9 1025.4 0.0
29/02:30am 4.7 1.9 3.0 89 0.7 SE 7 7 4 4 1025.0 1025.5 0.0
29/02:00am 4.9 2.1 3.2 89 0.7 SE 7 7 4 4 1025.3 1025.8 0.0
29/01:30am 5.4 2.7 2.9 84 1.0 SE 6 7 3 4 1025.7 1026.2 0.0
29/01:00am 6.7 4.5 3.5 80 1.4 SE 4 4 2 2 1025.9 1026.4 0.0
29/12:30am 6.2 4.0 3.4 82 1.2 ESE 4 6 2 3 1025.7 1026.2 0.0
29/12:00am 6.5 3.9 3.1 79 1.4 SE 6 7 3 4 1025.7 1026.2 0.0
 
Date/Time
EST
Temp
°C
App
Temp
°C
Dew
Point
°C
Rel
Hum
%
Delta-T
°C
Wind Press
QNH
hPa
Press
MSL
hPa
Rain since
9am
mm
Dir  Spd
km/h
Gust
km/h
Spd
kts
Gust
kts
28/11:30pm 6.6 3.4 3.2 79 1.5 SE 9 11 5 6 1025.6 1026.1 0.0
28/11:00pm 7.0 4.5 5.0 87 0.9 SE 7 9 4 5 1025.5 1026.0 0.0
28/10:30pm 6.9 4.8 5.7 92 0.5 ESE 6 9 3 5 1025.4 1025.9 0.0
28/10:00pm 7.2 5.5 5.8 91 0.6 ESE 4 6 2 3 1025.3 1025.8 0.0
28/09:30pm 7.3 5.4 5.1 86 1.0 ESE 4 6 2 3 1025.3 1025.8 0.0
28/09:00pm 8.0 6.2 5.3 83 1.2 S 4 6 2 3 1025.3 1025.8 0.0
28/08:30pm 8.1 5.8 4.9 80 1.4 SE 6 7 3 4 1025.2 1025.7 0.0
28/08:00pm 9.2 7.0 5.4 77 1.7 SE 6 7 3 4 1025.0 1025.5 0.0
28/07:30pm 9.3 7.2 5.7 78 1.7 ESE 6 6 3 3 1024.7 1025.1 0.0
28/07:00pm 10.3 8.9 5.7 73 2.1 ESE 2 4 1 2 1024.4 1024.8 0.0
28/06:30pm 11.3 9.9 5.6 68 2.7 NNE 2 4 1 2 1024.2 1024.6 0.0
28/06:00pm 12.4 10.2 6.2 66 3.0 N 7 9 4 5 1024.0 1024.4 0.0
28/05:30pm 13.0 10.4 6.1 63 3.3 NNW 9 11 5 6 1023.6 1024.0 0.0
28/05:00pm 13.6 10.7 6.7 63 3.4 NNW 11 15 6 8 1023.2 1023.6 0.0
28/04:30pm 14.4 11.8 6.0 57 4.1 NNW 9 13 5 7 1023.1 1023.5 0.0
28/04:00pm 14.7 11.4 6.5 58 4.0 NNW 13 17 7 9 1023.0 1023.4 0.0
28/03:30pm 15.4 12.1 6.2 54 4.5 N 13 19 7 10 1022.9 1023.3 0.0
28/03:00pm 16.0 13.4 3.4 43 5.8 WSW 6 9 3 5 1023.0 1023.4 0.0
28/02:30pm 15.9 14.0 4.9 48 5.3 S 4 7 2 4 1023.1 1023.5 0.0
28/02:00pm 15.8 13.9 4.8 48 5.2 NNW 4 9 2 5 1023.4 1023.8 0.0
28/01:30pm 15.5 14.0 3.0 43 5.7 CALM 0 4 0 2 1023.6 1024.0 0.0
28/01:00pm 15.4 13.7 4.2 47 5.3 NNW 2 6 1 3 1023.7 1024.1 0.0

Other formats

Comma delimited format used in spreadsheet applications
http://www.bom.gov.au/fwo/IDT60801/IDT60801.94955.axf

JavaScript Object Notation format (JSON) in row-major order
http://www.bom.gov.au/fwo/IDT60801/IDT60801.94955.json

Data quality

Most of these data are generated automatically and are frequently updated. Quality checks on data are not normally performed. It is possible for incorrect values to appear. Refer to information at About Latest Weather Observations and please check the disclaimer before using these data.